Impacts TAF Board
For situational awareness. Not to be used for flight planning purposes.
IDs:

KIAH - Houston/Bush Intl, TX, US

Issued at 0520 UTC 21 Oct 2018
Updated at 0759 UTC 21 Oct 2018
Potential Impact None Slight Moderate High
Time<<21/20Z 21/21Z 21/22Z 21/23Z 22/00Z 22/01Z 22/02Z 22/03Z 22/04Z 22/05Z 22/06Z 22/07Z 22/08Z>>
Type PRVL PRVL PRVL PRVL PRVL PRVL PRVL PRVL PRVL PRVL PRVL PRVL PRVL
VIS >6 >6 >6 >6 >6 >6 >6 >6 >6 >6 >6 >6 >6
CIG 250 250 250 250 250 250 250 180 180 180 180 180 180
Cover BKN BKN BKN BKN BKN BKN BKN BKN BKN BKN BKN BKN BKN
FltCat VFR VFR VFR VFR VFR VFR VFR VFR VFR VFR VFR VFR VFR
WX -- -- -- -- -- -- -- -- -- -- -- -- --
WDir 40 40 40 40 40 40 40 30 30 30 30 30 30
WSpd 13 13 13 13 13 13 13 7 7 7 7 7 7
WGst -- -- -- -- -- -- -- -- -- -- -- -- --
Raw TAF
KIAH 210520Z 2106/2212 02009KT P6SM SCT060 SCT150 BKN250
  FM211500 04013KT P6SM BKN250
  FM220300 03007KT P6SM BKN180 BKN250
  FM220900 04005KT P6SM OVC140


METAR Board
Radar Display
Forecast Discussion
For situational awareness. Not to be used for flight planning purposes.